Time,TemperatureF,DewpointF,PressureIn,WindDirection,WindDirectionDegrees,WindSpeedMPH,WindSpeedGustMPH,Humidity,HourlyPrecipIn,Conditions,Clouds,dailyrainin,SolarRadiationWatts/m^2,SoftwareType,DateUTC
2013-08-08 00:02:00,62.0,61.0,-100.00,NNW,336,1.0,5.0,98,0.00,,,0.05,0.000000,,2013-08-08 04:02:00,
2013-08-08 00:33:00,62.0,62.0,-100.00,NNW,336,0.0,3.0,99,0.00,,,0.05,0.000000,,2013-08-08 04:33:00,
2013-08-08 00:44:00,62.0,62.0,-100.00,NNW,336,0.0,3.0,99,0.00,,,0.05,0.000000,,2013-08-08 04:44:00,
2013-08-08 00:53:00,62.0,62.0,-100.00,NNW,336,0.0,3.0,99,0.00,,,0.05,0.000000,,2013-08-08 04:53:00,
2013-08-08 01:02:00,62.0,62.0,-100.00,NNW,336,0.0,3.0,99,0.00,,,0.05,0.000000,,2013-08-08 05:02:00,
2013-08-08 01:33:00,61.0,61.0,-100.00,NNE,25,0.0,4.0,99,0.00,,,0.05,0.000000,,2013-08-08 05:33:00,
2013-08-08 01:43:00,61.0,61.0,-100.00,NNE,25,0.0,4.0,99,0.00,,,0.05,0.000000,,2013-08-08 05:43:00,
2013-08-08 01:52:00,61.0,61.0,-100.00,NNE,25,0.0,4.0,99,0.00,,,0.05,0.000000,,2013-08-08 05:52:00,
2013-08-08 02:01:00,61.0,61.0,-100.00,NNE,25,0.0,4.0,99,0.00,,,0.05,0.000000,,2013-08-08 06:01:00,
2013-08-08 02:32:00,61.0,61.0,-100.00,North,9,0.0,0.0,99,0.00,,,0.05,0.000000,,2013-08-08 06:32:00,
2013-08-08 02:43:00,61.0,61.0,-100.00,North,9,0.0,0.0,99,0.00,,,0.05,0.000000,,2013-08-08 06:43:00,
2013-08-08 02:52:00,61.0,61.0,-100.00,North,9,0.0,0.0,99,0.00,,,0.05,0.000000,,2013-08-08 06:52:00,
2013-08-08 03:02:00,61.0,61.0,-100.00,North,9,0.0,0.0,99,0.00,,,0.05,0.000000,,2013-08-08 07:02:00,
2013-08-08 03:32:00,61.0,61.0,-100.00,NNE,16,0.0,0.0,100,0.00,,,0.05,0.000000,,2013-08-08 07:32:00,
2013-08-08 03:43:00,61.0,61.0,-100.00,NNE,16,0.0,0.0,100,0.00,,,0.05,0.000000,,2013-08-08 07:43:00,
2013-08-08 03:53:00,61.0,61.0,-100.00,NNE,16,0.0,0.0,100,0.00,,,0.05,0.000000,,2013-08-08 07:53:00,
2013-08-08 04:02:00,61.0,61.0,-100.00,NNE,16,0.0,0.0,100,0.00,,,0.05,0.000000,,2013-08-08 08:02:00,
2013-08-08 04:43:00,61.0,61.0,-100.00,NW,317,0.0,1.0,100,0.00,,,0.05,0.000000,,2013-08-08 08:43:00,
2013-08-08 04:53:00,61.0,61.0,-100.00,NW,317,0.0,1.0,100,0.00,,,0.05,0.000000,,2013-08-08 08:53:00,
2013-08-08 05:02:00,61.0,61.0,-100.00,NW,317,0.0,1.0,100,0.00,,,0.05,0.000000,,2013-08-08 09:02:00,
2013-08-08 05:43:00,61.0,61.0,-100.00,ESE,102,0.0,0.0,100,0.00,,,0.05,0.000000,,2013-08-08 09:43:00,
2013-08-08 05:53:00,61.0,61.0,-100.00,ESE,102,0.0,0.0,100,0.00,,,0.05,0.000000,,2013-08-08 09:53:00,
2013-08-08 06:01:00,61.0,61.0,-100.00,ESE,102,0.0,0.0,100,0.00,,,0.05,0.000000,,2013-08-08 10:01:00,
2013-08-08 06:33:00,61.0,61.0,-100.00,WSW,251,0.0,0.0,100,0.00,,,0.05,0.000000,,2013-08-08 10:33:00,
2013-08-08 06:43:00,61.0,61.0,-100.00,WSW,251,0.0,0.0,100,0.00,,,0.05,0.000000,,2013-08-08 10:43:00,
2013-08-08 06:52:00,61.0,61.0,-100.00,WSW,251,0.0,0.0,100,0.00,,,0.05,0.000000,,2013-08-08 10:52:00,
2013-08-08 07:02:00,61.0,61.0,-100.00,WSW,251,0.0,0.0,100,0.00,,,0.05,0.000000,,2013-08-08 11:02:00,
2013-08-08 07:32:00,61.0,61.0,-100.00,NNE,23,0.0,0.0,100,0.00,,,0.05,21.000000,,2013-08-08 11:32:00,
2013-08-08 07:43:00,61.0,61.0,-100.00,NNE,23,0.0,0.0,100,0.00,,,0.05,21.000000,,2013-08-08 11:43:00,
2013-08-08 07:52:00,61.0,61.0,-100.00,NNE,23,0.0,0.0,100,0.00,,,0.05,21.000000,,2013-08-08 11:52:00,
2013-08-08 08:02:00,61.0,61.0,-100.00,NNE,23,0.0,0.0,100,0.00,,,0.05,21.000000,,2013-08-08 12:02:00,
2013-08-08 08:43:00,63.0,63.0,-100.00,East,85,0.0,2.0,100,0.00,,,0.04,50.000000,,2013-08-08 12:43:00,
2013-08-08 08:53:00,63.0,63.0,-100.00,East,85,0.0,2.0,100,0.00,,,0.04,50.000000,,2013-08-08 12:53:00,
2013-08-08 09:02:00,63.0,63.0,-100.00,East,85,0.0,2.0,100,0.00,,,0.04,50.000000,,2013-08-08 13:02:00,
2013-08-08 09:32:00,65.0,65.0,-100.00,SE,130,0.0,4.0,100,0.00,,,0.04,1.000000,,2013-08-08 13:32:00,
2013-08-08 09:43:00,65.0,65.0,-100.00,SE,130,0.0,4.0,100,0.00,,,0.04,1.000000,,2013-08-08 13:43:00,
2013-08-08 09:53:00,65.0,65.0,-100.00,SE,130,0.0,4.0,100,0.00,,,0.04,1.000000,,2013-08-08 13:53:00,
2013-08-08 10:02:00,65.0,65.0,-100.00,SE,130,0.0,4.0,100,0.00,,,0.04,1.000000,,2013-08-08 14:02:00,
2013-08-08 10:43:00,69.0,69.0,-100.00,SSE,163,2.0,4.0,99,0.00,,,0.04,0.000000,,2013-08-08 14:43:00,
2013-08-08 10:53:00,69.0,69.0,-100.00,SSE,163,2.0,4.0,99,0.00,,,0.04,0.000000,,2013-08-08 14:53:00,
2013-08-08 11:02:00,69.0,69.0,-100.00,SSE,163,2.0,4.0,99,0.00,,,0.04,0.000000,,2013-08-08 15:02:00,
2013-08-08 11:33:00,75.0,70.0,-100.00,South,172,2.0,5.0,84,0.00,,,0.04,0.000000,,2013-08-08 15:33:00,
2013-08-08 11:43:00,75.0,70.0,-100.00,South,172,2.0,5.0,84,0.00,,,0.04,0.000000,,2013-08-08 15:43:00,
2013-08-08 11:53:00,75.0,70.0,-100.00,South,172,2.0,5.0,84,0.00,,,0.04,0.000000,,2013-08-08 15:53:00,
2013-08-08 12:02:00,75.0,70.0,-100.00,South,172,2.0,5.0,84,0.00,,,0.04,0.000000,,2013-08-08 16:02:00,
2013-08-08 12:32:00,75.0,68.0,-100.00,SSE,157,3.0,10.0,78,0.00,,,0.03,0.000000,,2013-08-08 16:32:00,
2013-08-08 12:42:00,75.0,68.0,-100.00,SSE,157,3.0,10.0,78,0.00,,,0.03,0.000000,,2013-08-08 16:42:00,
2013-08-08 12:52:00,75.0,68.0,-100.00,SSE,157,3.0,10.0,78,0.00,,,0.03,0.000000,,2013-08-08 16:52:00,
2013-08-08 13:02:00,75.0,68.0,-100.00,SSE,157,3.0,10.0,78,0.00,,,0.03,0.000000,,2013-08-08 17:02:00,
2013-08-08 13:32:00,76.0,69.0,-100.00,SSE,167,3.0,9.0,78,0.00,,,0.03,0.000000,,2013-08-08 17:32:00,
2013-08-08 13:43:00,76.0,69.0,-100.00,SSE,167,3.0,9.0,78,0.00,,,0.03,0.000000,,2013-08-08 17:43:00,
2013-08-08 13:52:00,76.0,69.0,-100.00,SSE,167,3.0,9.0,78,0.00,,,0.03,0.000000,,2013-08-08 17:52:00,
2013-08-08 14:02:00,76.0,69.0,-100.00,SSE,167,3.0,9.0,78,0.00,,,0.03,0.000000,,2013-08-08 18:02:00,
2013-08-08 14:32:00,80.0,70.0,-100.00,SE,135,2.0,7.0,72,0.00,,,0.02,0.000000,,2013-08-08 18:32:00,
2013-08-08 14:43:00,80.0,70.0,-100.00,SE,135,2.0,7.0,72,0.00,,,0.02,0.000000,,2013-08-08 18:43:00,
2013-08-08 14:53:00,80.0,70.0,-100.00,SE,135,2.0,7.0,72,0.00,,,0.02,0.000000,,2013-08-08 18:53:00,
2013-08-08 15:02:00,80.0,70.0,-100.00,SE,135,2.0,7.0,72,0.00,,,0.02,0.000000,,2013-08-08 19:02:00,
2013-08-08 15:32:00,80.0,70.0,-100.00,East,99,2.0,10.0,72,0.00,,,0.02,0.000000,,2013-08-08 19:32:00,
2013-08-08 15:43:00,80.0,70.0,-100.00,East,99,2.0,10.0,72,0.00,,,0.02,0.000000,,2013-08-08 19:43:00,
2013-08-08 15:59:00,80.0,70.0,-100.00,East,99,2.0,10.0,72,0.00,,,0.02,0.000000,,2013-08-08 19:59:00,
2013-08-08 16:32:00,81.0,71.0,-100.00,SSE,147,5.0,10.0,71,0.00,,,0.02,0.000000,,2013-08-08 20:32:00,
2013-08-08 16:42:00,81.0,71.0,-100.00,SSE,147,5.0,10.0,71,0.00,,,0.02,0.000000,,2013-08-08 20:42:00,
2013-08-08 16:53:00,81.0,71.0,-100.00,SSE,147,5.0,10.0,71,0.00,,,0.02,0.000000,,2013-08-08 20:53:00,
2013-08-08 17:01:00,81.0,71.0,-100.00,SSE,147,5.0,10.0,71,0.00,,,0.02,0.000000,,2013-08-08 21:01:00,
2013-08-08 17:34:00,81.0,69.0,-100.00,SE,133,3.0,10.0,67,0.00,,,0.02,0.000000,,2013-08-08 21:34:00,
2013-08-08 17:46:00,81.0,69.0,-100.00,SE,133,3.0,10.0,67,0.00,,,0.02,0.000000,,2013-08-08 21:46:00,
2013-08-08 17:57:00,81.0,69.0,-100.00,SE,133,3.0,10.0,67,0.00,,,0.02,0.000000,,2013-08-08 21:57:00,
2013-08-08 18:06:00,81.0,69.0,-100.00,SE,133,3.0,10.0,67,0.00,,,0.02,0.000000,,2013-08-08 22:06:00,
2013-08-08 18:49:00,78.0,68.0,-100.00,South,169,2.0,8.0,71,0.00,,,0.02,0.000000,,2013-08-08 22:49:00,
2013-08-08 18:58:00,78.0,68.0,-100.00,South,169,2.0,8.0,71,0.00,,,0.02,0.000000,,2013-08-08 22:58:00,
2013-08-08 19:06:00,78.0,68.0,-100.00,South,169,2.0,8.0,71,0.00,,,0.02,0.000000,,2013-08-08 23:06:00,
2013-08-08 19:37:00,76.0,69.0,-100.00,SE,128,2.0,7.0,80,0.00,,,0.02,0.000000,,2013-08-08 23:37:00,
2013-08-08 19:50:00,76.0,69.0,-100.00,SE,128,2.0,7.0,80,0.00,,,0.02,0.000000,,2013-08-08 23:50:00,
2013-08-08 19:57:00,76.0,69.0,-100.00,SE,128,2.0,7.0,80,0.00,,,0.02,0.000000,,2013-08-08 23:57:00,
2013-08-08 20:06:00,76.0,69.0,-100.00,SE,128,2.0,7.0,80,0.00,,,0.02,0.000000,,2013-08-09 00:06:00,
2013-08-08 20:48:00,74.0,70.0,-100.00,SSE,149,2.0,5.0,87,0.00,,,0.02,0.000000,,2013-08-09 00:48:00,
2013-08-08 20:57:00,74.0,70.0,-100.00,SSE,149,2.0,5.0,87,0.00,,,0.02,0.000000,,2013-08-09 00:57:00,
2013-08-08 21:38:00,73.0,70.0,-100.00,SSE,166,3.0,10.0,89,0.00,,,0.00,0.000000,,2013-08-09 01:38:00,
2013-08-08 21:47:00,73.0,70.0,-100.00,SSE,166,3.0,10.0,89,0.00,,,0.00,0.000000,,2013-08-09 01:47:00,
2013-08-08 22:00:00,73.0,70.0,-100.00,SSE,166,3.0,10.0,89,0.00,,,0.00,0.000000,,2013-08-09 02:00:00,
2013-08-08 22:05:00,73.0,70.0,-100.00,SSE,166,3.0,10.0,89,0.00,,,0.00,0.000000,,2013-08-09 02:05:00,
2013-08-08 22:08:00,72.0,69.0,-100.00,WSW,241,2.0,8.0,90,0.00,,,0.00,0.000000,,2013-08-09 02:08:00,
2013-08-08 22:39:00,72.0,69.0,-100.00,WSW,241,2.0,8.0,90,0.00,,,0.00,0.000000,,2013-08-09 02:39:00,
2013-08-08 22:47:00,72.0,69.0,-100.00,WSW,241,2.0,8.0,90,0.00,,,0.00,0.000000,,2013-08-09 02:47:00,
2013-08-08 22:57:00,72.0,69.0,-100.00,WSW,241,2.0,8.0,90,0.00,,,0.00,0.000000,,2013-08-09 02:57:00,
2013-08-08 23:36:00,72.0,69.0,-100.00,NE,41,2.0,9.0,89,0.00,,,0.00,0.000000,,2013-08-09 03:36:00,
2013-08-08 23:47:00,72.0,69.0,-100.00,NE,41,2.0,9.0,89,0.00,,,0.00,0.000000,,2013-08-09 03:47:00,
2013-08-08 23:56:00,72.0,69.0,-100.00,NE,41,2.0,9.0,89,0.00,,,0.00,0.000000,,2013-08-09 03:56:00,